KCHO/CHO METAR and TAF weather

Enter ICAO airport designator
Station Type Date Time Source
KCHO METAR 2022/06/28 23:53 UTC NOAA

KCHO 282353Z 16005KT 10SM CLR 24/14 A3020 RMK AO2 SLP219 T02440144 10278 20244 53003


Station Type Date Time Source
KCHO Decoded METAR 2022/06/28 23:53 UTC NOAA

CHARLOTTESVILLE-ALBEMARLE, VA, United States (KCHO) 38-08N 078-27W 192M
Jun 28, 2022 - 07:53 PM EDT / 2022.06.28 2353 UTC
Wind: from the SSE (160 degrees) at 6 MPH (5 KT):0
Visibility: 10 mile(s):0
Sky conditions: clear
Temperature: 75.9 F (24.4 C)
Dew Point: 57.9 F (14.4 C)
Relative Humidity: 53%
Pressure (altimeter): 30.2 in. Hg (1022 hPa)
Pressure tendency: 0.01 inches (0.3 hPa) higher than three hours ago
ob: KCHO 282353Z 16005KT 10SM CLR 24/14 A3020 RMK AO2 SLP219 T02440144 10278 20244 53003
cycle: 0

Station Type Date Time Source
KCHO TAF 2022/06/28 18:22 UTC NOAA

TAF KCHO 281720Z 2818/2918 05005KT P6SM FEW050 SCT250
FM282100 12006KT P6SM FEW045 SCT250
FM290100 00000KT P6SM FEW050 SCT250
FM291400 20004KT P6SM FEW250

Example: see airport list